createdAt,value
2014-07-31T00:00:11.273Z,101256
2014-07-31T00:02:19.858Z,101253
2014-07-31T00:04:28.443Z,101247
2014-07-31T00:06:37.027Z,101241
2014-07-31T00:08:44.364Z,101247
2014-07-31T00:10:52.307Z,101253
2014-07-31T00:13:00.264Z,101238
2014-07-31T00:15:07.596Z,101232
2014-07-31T00:17:14.912Z,101232
2014-07-31T00:19:23.495Z,101244
2014-07-31T00:21:32.077Z,101238
2014-07-31T00:23:40.659Z,101229
2014-07-31T00:25:48.006Z,101232
2014-07-31T00:27:55.949Z,101244
2014-07-31T00:30:04.531Z,101229
2014-07-31T00:32:13.112Z,101238
2014-07-31T00:34:21.694Z,101235
2014-07-31T00:36:30.276Z,101235
2014-07-31T00:38:38.859Z,101244
2014-07-31T00:40:46.818Z,101241
2014-07-31T00:45:30.559Z,101250
2014-07-31T00:47:38.516Z,101241
2014-07-31T00:49:46.474Z,101256
2014-07-31T00:51:54.432Z,101256
2014-07-31T00:54:02.374Z,101250
2014-07-31T00:56:10.955Z,101250
2014-07-31T00:58:18.913Z,101253
2014-07-31T01:00:26.995Z,101244
2014-07-31T01:02:35.577Z,101259
2014-07-31T01:04:44.161Z,101250
2014-07-31T01:06:52.118Z,101256
2014-07-31T01:09:00.699Z,101247
2014-07-31T01:11:09.281Z,101256
2014-07-31T01:13:17.238Z,101268
2014-07-31T01:15:25.321Z,101253
2014-07-31T01:17:32.653Z,101262
2014-07-31T01:19:40.609Z,101256
2014-07-31T01:21:48.693Z,101265
2014-07-31T01:23:56.649Z,101262
2014-07-31T01:26:05.262Z,101267
2014-07-31T01:28:13.204Z,101276
2014-07-31T01:30:21.162Z,101273
2014-07-31T01:32:29.744Z,101279
2014-07-31T01:34:38.325Z,101276
2014-07-31T01:36:45.643Z,101288
2014-07-31T01:38:54.226Z,101291
2014-07-31T01:41:02.808Z,101267
2014-07-31T01:43:11.391Z,101285
2014-07-31T01:45:19.972Z,101273
2014-07-31T01:47:27.928Z,101279
2014-07-31T01:49:36.511Z,101276
2014-07-31T01:51:45.093Z,101282
2014-07-31T01:53:53.675Z,101282
2014-07-31T01:56:01.648Z,101291
2014-07-31T01:58:10.230Z,101288
2014-07-31T02:00:18.313Z,101282
2014-07-31T02:02:26.895Z,101306
2014-07-31T02:04:34.867Z,101294
2014-07-31T02:06:43.450Z,101300
2014-07-31T02:08:52.033Z,101297
2014-07-31T02:10:59.974Z,101306
2014-07-31T02:13:08.556Z,101297
2014-07-31T02:15:15.888Z,101291
2014-07-31T02:17:24.470Z,101300
2014-07-31T02:19:33.052Z,101308
2014-07-31T02:21:40.994Z,101303
2014-07-31T02:23:48.951Z,101308
2014-07-31T02:25:57.533Z,101303
2014-07-31T02:28:05.490Z,101300
2014-07-31T02:30:13.450Z,101306
2014-07-31T02:32:21.532Z,101297
2014-07-31T02:34:30.114Z,101294
2014-07-31T02:36:38.071Z,101285
2014-07-31T02:38:46.653Z,101291
2014-07-31T02:40:53.970Z,101294
2014-07-31T02:43:01.302Z,101297
2014-07-31T02:45:09.899Z,101303
2014-07-31T02:47:17.856Z,101294
2014-07-31T02:49:25.798Z,101300
2014-07-31T02:51:33.755Z,101300
2014-07-31T02:53:41.697Z,101303
2014-07-31T02:55:50.280Z,101303
2014-07-31T02:57:58.861Z,101297
2014-07-31T03:00:07.443Z,101311
2014-07-31T03:02:15.400Z,101303
2014-07-31T03:04:23.981Z,101297
2014-07-31T03:06:32.564Z,101291
2014-07-31T03:08:41.132Z,101288
2014-07-31T03:10:49.713Z,101282
2014-07-31T03:12:58.296Z,101291
2014-07-31T03:15:06.878Z,101291
2014-07-31T03:17:15.460Z,101288
2014-07-31T03:19:24.042Z,101297
2014-07-31T03:21:31.984Z,101305
2014-07-31T03:23:40.566Z,101305
2014-07-31T03:25:49.148Z,101297
2014-07-31T03:27:57.105Z,101297
2014-07-31T03:30:04.438Z,101297
2014-07-31T03:32:13.021Z,101302
2014-07-31T03:34:21.587Z,101302
2014-07-31T03:36:30.168Z,101300
2014-07-31T03:38:38.751Z,101302
2014-07-31T03:40:47.335Z,101300
2014-07-31T03:42:55.917Z,101307
2014-07-31T03:45:03.874Z,101302
2014-07-31T03:47:12.439Z,101305
2014-07-31T03:49:21.022Z,101302
2014-07-31T03:51:28.980Z,101299
2014-07-31T03:53:36.937Z,101299
2014-07-31T03:55:45.644Z,101302
2014-07-31T03:57:53.101Z,101300
2014-07-31T03:59:59.809Z,101310
2014-07-31T04:02:07.765Z,101307
2014-07-31T04:04:16.347Z,101313
2014-07-31T04:06:24.289Z,101328
2014-07-31T04:08:32.870Z,101322
2014-07-31T04:10:41.454Z,101331
2014-07-31T04:12:50.036Z,101305
2014-07-31T04:14:58.009Z,101310
2014-07-31T04:17:06.592Z,101313
2014-07-31T04:19:14.549Z,101310
2014-07-31T04:21:23.131Z,101325
2014-07-31T04:23:31.073Z,101328
2014-07-31T04:25:39.655Z,101322
2014-07-31T04:27:48.237Z,101328
2014-07-31T04:29:56.818Z,101331
2014-07-31T04:32:05.401Z,101322
2014-07-31T04:34:13.983Z,101331
2014-07-31T04:36:21.924Z,101325
2014-07-31T04:38:30.506Z,101319
2014-07-31T04:40:38.463Z,101328
2014-07-31T04:42:45.922Z,101337
2014-07-31T04:44:54.519Z,101325
2014-07-31T04:47:02.476Z,101331
2014-07-31T04:49:11.058Z,101325
2014-07-31T04:51:19.000Z,101331
2014-07-31T04:53:26.958Z,101331
2014-07-31T04:55:35.540Z,101343
2014-07-31T04:57:43.497Z,101343
2014-07-31T04:59:50.970Z,101331
2014-07-31T05:01:59.552Z,101328
2014-07-31T05:04:08.134Z,101337
2014-07-31T05:06:16.091Z,101337
2014-07-31T05:08:24.673Z,101343
2014-07-31T05:10:32.630Z,101331
2014-07-31T05:12:39.337Z,101331
2014-07-31T05:14:47.922Z,101337
2014-07-31T05:16:55.879Z,101325
2014-07-31T05:19:03.852Z,101337
2014-07-31T05:21:12.434Z,101343
2014-07-31T05:23:21.016Z,101349
2014-07-31T05:25:29.629Z,101343
2014-07-31T05:27:37.571Z,101346
2014-07-31T05:29:46.153Z,101337
2014-07-31T05:31:54.110Z,101351
2014-07-31T05:34:02.067Z,101340
2014-07-31T05:36:10.649Z,101359
2014-07-31T05:38:18.606Z,101362
2014-07-31T05:40:26.564Z,101349
2014-07-31T05:42:34.521Z,101359
2014-07-31T05:44:43.104Z,101359
2014-07-31T05:46:51.686Z,101368
2014-07-31T05:49:00.267Z,101356
2014-07-31T05:51:06.974Z,101346
2014-07-31T05:53:15.556Z,101351
2014-07-31T05:55:23.513Z,101362
2014-07-31T05:57:32.096Z,101356
2014-07-31T05:59:40.178Z,101365
2014-07-31T06:01:48.761Z,101365
2014-07-31T06:03:57.342Z,101364
2014-07-31T06:12:46.017Z,101367
2014-07-31T06:14:54.598Z,101369
2014-07-31T06:17:03.180Z,101360
2014-07-31T06:19:11.763Z,101366
2014-07-31T06:21:19.704Z,101374
2014-07-31T06:23:28.286Z,101363
2014-07-31T06:25:36.228Z,101374
2014-07-31T06:27:44.810Z,101368
2014-07-31T06:29:53.392Z,101368
2014-07-31T06:32:01.974Z,101383
2014-07-31T06:34:10.556Z,101371
2014-07-31T06:36:18.499Z,101383
2014-07-31T06:38:27.080Z,101380
2014-07-31T06:40:35.663Z,101371
2014-07-31T06:42:44.245Z,101391
2014-07-31T06:44:51.561Z,101383
2014-07-31T06:47:00.144Z,101392
2014-07-31T06:49:08.101Z,101386
2014-07-31T06:51:15.418Z,101395
2014-07-31T06:53:23.374Z,101386
2014-07-31T06:55:30.708Z,101397
2014-07-31T06:57:38.040Z,101403
2014-07-31T06:59:45.981Z,101403
2014-07-31T07:01:54.563Z,101397
2014-07-31T07:04:03.145Z,101395
2014-07-31T07:06:11.729Z,101403
2014-07-31T07:08:19.685Z,101400
2014-07-31T07:10:28.267Z,101400
2014-07-31T07:12:36.849Z,101394
2014-07-31T07:14:44.932Z,101403
2014-07-31T07:16:53.515Z,101409
2014-07-31T07:19:02.096Z,101397
2014-07-31T07:21:10.040Z,101400
2014-07-31T07:23:18.621Z,101408
2014-07-31T07:25:25.953Z,101397
2014-07-31T07:27:34.535Z,101412
2014-07-31T07:29:41.852Z,101400
2014-07-31T07:31:50.434Z,101415
2014-07-31T07:33:58.391Z,101403
2014-07-31T07:36:06.974Z,101412
2014-07-31T07:38:14.930Z,101409
2014-07-31T07:40:23.513Z,101412
2014-07-31T07:42:31.469Z,101398
2014-07-31T07:44:40.068Z,101401
2014-07-31T07:46:48.024Z,101389
2014-07-31T07:48:56.606Z,101398
2014-07-31T07:51:05.189Z,101407
2014-07-31T07:53:13.771Z,101398
2014-07-31T07:55:21.729Z,101404
2014-07-31T07:57:30.310Z,101404
2014-07-31T07:59:38.893Z,101401
2014-07-31T08:01:46.835Z,101407
2014-07-31T08:03:55.417Z,101407
2014-07-31T08:06:02.750Z,101410
2014-07-31T08:08:11.333Z,101407
2014-07-31T08:10:19.913Z,101410
2014-07-31T08:12:27.872Z,101401
2014-07-31T08:14:35.829Z,101422
2014-07-31T08:16:43.771Z,101407
2014-07-31T08:18:51.744Z,101410
2014-07-31T08:20:59.684Z,101410
2014-07-31T08:23:08.266Z,101416
2014-07-31T08:25:16.364Z,101413
2014-07-31T08:27:24.947Z,101407
2014-07-31T08:29:33.029Z,101405
2014-07-31T08:31:41.610Z,101405
2014-07-31T08:33:50.193Z,101405
2014-07-31T08:35:58.791Z,101411
2014-07-31T08:38:07.373Z,101414
2014-07-31T08:40:15.330Z,101399
2014-07-31T08:42:23.288Z,101399
2014-07-31T08:44:31.870Z,101405
2014-07-31T08:46:40.452Z,101408
2014-07-31T08:48:49.036Z,101396
2014-07-31T08:50:57.617Z,101399
2014-07-31T08:53:06.266Z,101411
2014-07-31T08:55:14.927Z,101390
2014-07-31T08:57:22.946Z,101390
2014-07-31T08:59:31.557Z,101390
2014-07-31T09:01:39.542Z,101402
2014-07-31T09:03:48.144Z,101402
2014-07-31T09:05:56.735Z,101405
2014-07-31T09:08:05.338Z,101393
2014-07-31T09:10:13.908Z,101414
2014-07-31T09:12:22.509Z,101411
2014-07-31T09:14:31.092Z,101396
2014-07-31T09:16:39.691Z,101393
2014-07-31T09:18:48.259Z,101402
2014-07-31T09:20:56.841Z,101399
2014-07-31T09:23:05.425Z,101414
2014-07-31T09:25:14.021Z,101399
2014-07-31T09:27:22.619Z,101399
2014-07-31T09:29:31.202Z,101405
2014-07-31T20:07:06.489Z,101343
2014-07-31T20:09:15.071Z,101334
2014-07-31T20:11:23.637Z,101338
2014-07-31T20:14:24.831Z,101335
2014-07-31T20:16:33.413Z,101338
2014-07-31T20:18:41.995Z,101333
2014-07-31T20:20:50.077Z,101345
2014-07-31T20:22:58.660Z,101333
2014-07-31T20:25:05.366Z,101339
2014-07-31T20:27:13.464Z,101333
2014-07-31T20:29:21.406Z,101339
2014-07-31T20:31:30.002Z,101337
2014-07-31T20:37:55.594Z,101337
2014-07-31T21:12:37.285Z,101338
2014-07-31T21:17:05.669Z,101335
2014-07-31T21:21:33.538Z,101338
2014-07-31T21:26:01.905Z,101329
2014-07-31T21:30:30.273Z,101338
2014-07-31T21:34:58.656Z,101338
2014-07-31T21:39:26.401Z,101338
2014-07-31T21:43:54.767Z,101343
2014-07-31T21:48:23.135Z,101349
2014-07-31T21:52:50.254Z,101349
2014-07-31T21:57:17.996Z,101346
2014-07-31T22:01:46.364Z,101363
2014-07-31T22:06:14.248Z,101346
2014-07-31T22:10:41.991Z,101343
2014-07-31T22:15:10.360Z,101343
2014-07-31T22:19:38.867Z,101346
2014-07-31T22:24:05.968Z,101346
2014-07-31T22:28:33.714Z,101346
2014-07-31T22:33:02.081Z,101352
2014-07-31T22:37:30.449Z,101346
2014-07-31T22:41:58.192Z,101337
2014-07-31T22:46:26.559Z,101343
2014-07-31T22:50:54.302Z,101357
2014-07-31T22:55:22.669Z,101352
2014-07-31T22:59:49.774Z,101349
2014-07-31T23:04:17.516Z,101346
2014-07-31T23:08:45.883Z,101349
2014-07-31T23:13:13.627Z,101346
2014-07-31T23:17:41.369Z,101366
2014-07-31T23:22:09.738Z,101346
2014-07-31T23:26:38.121Z,101343
2014-07-31T23:31:06.490Z,101357
2014-07-31T23:35:34.857Z,101349
2014-07-31T23:40:03.225Z,101343
2014-07-31T23:44:31.592Z,101337
2014-07-31T23:48:59.960Z,101337
2014-07-31T23:53:27.703Z,101325
2014-07-31T23:57:55.464Z,101331
